Time;durP1;ratioP1;P1;durP2;ratioP2;P2;SDS_P1;SDS_P2;PMS_P1;PMS_P2;Temp;Humidity;BMP_temperature;BMP_pressure;BME280_temperature;BME280_humidity;BME280_pressure;Samples;Min_cycle;Max_cycle;Signal;HPM_P1;HPM_P2
2023/08/09 00:00:45;;;;;;;2.15;1.95;;;;;;;17.27;nan;61390.84;5011606;28;20249;-65
2023/08/09 00:03:11;;;;;;;2.05;1.85;;;;;;;14.81;nan;62790.88;5010370;28;20172;-63
2023/08/09 00:05:36;;;;;;;2.20;1.98;;;;;;;17.55;nan;61629.19;5011688;28;20604;-64
2023/08/09 00:08:03;;;;;;;2.45;2.00;;;;;;;17.54;nan;61367.13;5011433;28;20238;-63
2023/08/09 00:10:28;;;;;;;2.15;1.83;;;;;;;17.38;nan;61304.59;5011368;28;20259;-62
2023/08/09 00:12:54;;;;;;;3.05;2.22;;;;;;;17.41;nan;61320.88;5011182;28;20172;-62
2023/08/09 00:15:19;;;;;;;3.70;2.10;;;;;;;17.18;nan;61308.94;5011101;28;20174;-65
2023/08/09 00:17:45;;;;;;;3.03;2.30;;;;;;;16.70;nan;61239.81;5011615;28;20292;-65
2023/08/09 00:20:14;;;;;;;3.13;2.03;;;;;;;16.88;nan;61222.91;5010293;28;20203;-63
2023/08/09 00:22:41;;;;;;;2.75;2.28;;;;;;;16.61;nan;61227.09;5009658;28;20168;-64
2023/08/09 00:25:08;;;;;;;3.60;2.50;;;;;;;16.77;nan;61466.47;5009489;28;20666;-62
2023/08/09 00:27:34;;;;;;;3.88;2.70;;;;;;;16.79;nan;61335.13;5009138;28;20235;-63
2023/08/09 00:29:59;;;;;;;4.07;2.47;;;;;;;15.46;nan;61147.94;5009381;28;20690;-65
2023/08/09 00:32:25;;;;;;;3.30;2.13;;;;;;;17.04;nan;61271.94;5008791;28;20184;-62
2023/08/09 00:34:51;;;;;;;2.67;2.05;;;;;;;16.66;nan;61190.91;5008756;28;20184;-62
2023/08/09 00:37:16;;;;;;;3.05;2.33;;;;;;;16.84;nan;61213.78;5010712;28;20211;-63
2023/08/09 00:39:42;;;;;;;2.50;2.10;;;;;;;16.73;nan;61346.41;5011103;28;20180;-64
2023/08/09 00:42:08;;;;;;;2.58;2.05;;;;;;;16.82;nan;61239.91;5013799;28;20561;-64
2023/08/09 00:44:33;;;;;;;2.20;2.00;;;;;;;16.79;nan;61224.19;5015561;28;20184;-63
2023/08/09 00:46:59;;;;;;;3.13;2.40;;;;;;;16.80;nan;61211.84;5015240;28;20222;-63
2023/08/09 00:49:25;;;;;;;3.53;2.55;;;;;;;16.62;nan;61382.41;5014351;28;20184;-63
2023/08/09 00:51:52;;;;;;;2.72;2.10;;;;;;;16.77;nan;61352.94;5014390;28;20242;-65
2023/08/09 00:54:20;;;;;;;2.63;2.10;;;;;;;16.52;nan;61320.06;5014453;28;20274;-64
2023/08/09 00:56:46;;;;;;;2.40;2.00;;;;;;;16.56;nan;61251.81;5006276;28;20211;-64
2023/08/09 00:59:12;;;;;;;2.95;2.17;;;;;;;16.67;nan;61164.22;5014782;28;20659;-62
2023/08/09 01:01:38;;;;;;;2.65;2.17;;;;;;;16.40;nan;61151.81;5013841;28;20192;-63
2023/08/09 01:04:04;;;;;;;3.22;2.65;;;;;;;16.57;nan;61314.84;5014919;28;20207;-64
2023/08/09 01:06:36;;;;;;;3.58;2.40;;;;;;;16.49;nan;61262.53;5014940;28;20214;-64
2023/08/09 01:09:26;;;;;;;4.20;2.47;;;;;;;16.78;nan;61263.78;5013102;28;20262;-64
2023/08/09 01:12:03;;;;;;;3.10;2.30;;;;;;;16.68;nan;61188.00;5013365;28;20187;-63
2023/08/09 01:14:31;;;;;;;11.85;2.30;;;;;;;16.69;nan;61400.66;5013993;28;20198;-65
2023/08/09 01:16:59;;;;;;;2.75;2.28;;;;;;;16.72;nan;61172.44;5013528;28;20223;-62
2023/08/09 01:19:33;;;;;;;4.00;2.45;;;;;;;16.70;nan;61182.50;5013042;28;20260;-62
2023/08/09 01:22:04;;;;;;;2.88;2.28;;;;;;;16.62;nan;61266.34;5012540;28;20183;-61
2023/08/09 01:24:31;;;;;;;3.33;2.45;;;;;;;16.33;nan;61208.94;5013990;28;20265;-64
2023/08/09 01:26:57;;;;;;;3.22;2.05;;;;;;;16.40;nan;61146.66;5014477;28;20329;-64
2023/08/09 01:29:22;;;;;;;2.50;2.28;;;;;;;16.87;nan;61212.03;5013860;28;20706;-62
2023/08/09 01:31:48;;;;;;;5.88;2.25;;;;;;;16.81;nan;61362.63;5013915;28;20195;-64
2023/08/09 01:34:13;;;;;;;2.67;2.17;;;;;;;17.01;nan;61287.19;5013146;28;20202;-63
2023/08/09 01:36:41;;;;;;;3.33;2.30;;;;;;;16.91;nan;61352.72;5014150;28;20670;-64
2023/08/09 01:39:12;;;;;;;3.05;2.28;;;;;;;17.04;nan;61403.56;5013774;28;20242;-61
2023/08/09 01:41:39;;;;;;;2.70;2.13;;;;;;;17.16;nan;61252.47;5014168;28;20184;-62
2023/08/09 01:44:06;;;;;;;2.35;2.13;;;;;;;17.32;nan;61334.53;5014369;28;20172;-63
2023/08/09 01:46:32;;;;;;;2.53;2.08;;;;;;;17.05;nan;61430.50;5011954;28;20190;-64
2023/08/09 01:49:14;;;;;;;3.13;2.33;;;;;;;16.77;nan;61384.47;5013436;28;20196;-64
2023/08/09 01:51:40;;;;;;;2.50;2.20;;;;;;;16.65;nan;61210.97;5010465;28;20186;-60
2023/08/09 01:54:08;;;;;;;2.40;2.13;;;;;;;16.72;nan;61255.00;5012575;28;20660;-61
2023/08/09 01:56:34;;;;;;;3.22;2.70;;;;;;;16.85;nan;61225.25;5012653;28;20199;-61
2023/08/09 01:59:00;;;;;;;2.30;2.10;;;;;;;16.80;nan;61284.09;5010748;28;20573;-62
2023/08/09 02:01:25;;;;;;;4.05;2.55;;;;;;;16.78;nan;61272.06;5012336;28;20267;-61
2023/08/09 02:03:51;;;;;;;4.60;2.33;;;;;;;16.61;nan;61193.00;5011838;28;20180;-61
2023/08/09 02:06:16;;;;;;;4.38;2.70;;;;;;;16.43;nan;61204.19;5012611;28;20667;-64
2023/08/09 02:08:43;;;;;;;2.88;2.40;;;;;;;16.33;nan;61174.84;5012375;28;20184;-63
2023/08/09 02:11:08;;;;;;;2.75;2.40;;;;;;;16.21;nan;61156.16;5013411;28;20180;-63
2023/08/09 02:13:34;;;;;;;3.13;2.38;;;;;;;16.16;nan;61160.84;5012574;28;20196;-65
2023/08/09 02:16:00;;;;;;;3.78;2.75;;;;;;;15.90;nan;61083.72;5010464;28;20287;-61
2023/08/09 02:18:26;;;;;;;3.40;2.55;;;;;;;15.99;nan;61095.88;5012718;28;20326;-61
2023/08/09 02:20:52;;;;;;;3.17;2.55;;;;;;;15.86;nan;61222.91;5013288;28;20547;-63
2023/08/09 02:23:18;;;;;;;3.33;2.60;;;;;;;15.84;nan;61131.03;5013616;28;20188;-63
2023/08/09 02:25:43;;;;;;;4.13;2.75;;;;;;;15.91;nan;61076.53;5013417;28;20266;-62
2023/08/09 02:28:09;;;;;;;3.20;2.70;;;;;;;15.80;nan;61059.56;5012305;28;20234;-62
2023/08/09 02:30:34;;;;;;;4.97;2.50;;;;;;;15.59;nan;61007.03;5012950;28;20260;-64
2023/08/09 02:33:00;;;;;;;3.00;2.47;;;;;;;15.75;nan;61059.09;5012414;28;20198;-63
2023/08/09 02:35:25;;;;;;;3.58;2.60;;;;;;;15.74;nan;61021.91;4873456;28;20176;-62
2023/08/09 02:37:50;;;;;;;3.60;2.88;;;;;;;15.55;nan;61118.94;5013054;28;20187;-62
2023/08/09 02:40:16;;;;;;;3.78;2.72;;;;;;;15.68;nan;61020.28;5012073;28;20187;-62
2023/08/09 02:42:42;;;;;;;4.38;3.00;;;;;;;15.36;nan;61064.03;5011201;28;20270;-63
2023/08/09 02:45:07;;;;;;;4.00;2.72;;;;;;;15.44;nan;60937.19;5012769;28;20246;-62
2023/08/09 02:47:34;;;;;;;3.42;2.88;;;;;;;15.29;nan;60889.44;5010912;28;20702;-62
2023/08/09 02:49:59;;;;;;;4.53;3.33;;;;;;;15.04;nan;60933.94;5010987;28;20184;-63
2023/08/09 02:52:25;;;;;;;6.05;3.60;;;;;;;14.56;nan;60736.63;5012108;28;20283;-62
2023/08/09 02:54:51;;;;;;;4.50;3.20;;;;;;;14.59;nan;60583.19;5011536;28;20559;-63
2023/08/09 02:57:16;;;;;;;4.75;3.15;;;;;;;14.65;nan;60509.66;5011772;28;20207;-62
2023/08/09 02:59:42;;;;;;;3.90;3.00;;;;;;;14.62;nan;60395.78;5012320;28;20655;-62
2023/08/09 03:02:07;;;;;;;4.80;3.53;;;;;;;14.55;nan;60347.41;5011573;28;20188;-63
2023/08/09 03:04:33;;;;;;;4.78;3.00;;;;;;;14.51;nan;60229.34;5011718;28;20188;-63
2023/08/09 03:06:58;;;;;;;6.00;3.53;;;;;;;14.94;nan;60416.06;5012100;28;20192;-64
2023/08/09 03:09:24;;;;;;;5.03;3.38;;;;;;;12.30;nan;61367.19;5011765;28;20180;-61
2023/08/09 03:11:49;;;;;;;5.38;3.55;;;;;;;14.74;nan;60326.91;5010949;28;20271;-64
2023/08/09 03:14:15;;;;;;;6.32;3.60;;;;;;;14.57;nan;60351.66;5011203;28;20238;-62
2023/08/09 03:16:41;;;;;;;5.38;3.35;;;;;;;14.81;nan;60483.81;5009996;28;20261;-61
2023/08/09 03:19:08;;;;;;;7.32;3.75;;;;;;;15.24;nan;60811.22;5007898;28;21785;-62
2023/08/09 03:21:34;;;;;;;5.57;3.83;;;;;;;15.29;nan;60688.16;5010204;28;20626;-65
2023/08/09 03:23:59;;;;;;;5.25;3.67;;;;;;;14.98;nan;60602.56;5009738;28;20275;-61
2023/08/09 03:26:26;;;;;;;5.43;3.08;;;;;;;15.21;nan;60733.25;5011083;28;20291;-63
2023/08/09 03:28:52;;;;;;;4.30;3.17;;;;;;;15.22;nan;60752.94;5010109;28;20235;-62
2023/08/09 03:31:17;;;;;;;5.85;4.13;;;;;;;15.47;nan;60919.97;5011753;28;20172;-62
2023/08/09 03:33:43;;;;;;;5.18;3.40;;;;;;;15.59;nan;61007.03;5010214;28;20184;-64
2023/08/09 03:36:09;;;;;;;5.35;3.50;;;;;;;16.46;nan;61132.25;5011939;28;20199;-62
2023/08/09 03:38:34;;;;;;;5.03;3.30;;;;;;;17.17;nan;61238.13;5010762;28;20592;-63
2023/08/09 03:41:00;;;;;;;4.70;3.38;;;;;;;17.88;nan;61386.94;5010124;28;20187;-61
2023/08/09 03:43:26;;;;;;;6.63;3.50;;;;;;;18.59;nan;61457.81;5010587;28;20190;-63
2023/08/09 03:45:51;;;;;;;4.78;3.22;;;;;;;19.52;nan;61541.22;5010402;28;20264;-62
2023/08/09 03:48:17;;;;;;;4.65;3.03;;;;;;;20.37;nan;61631.75;5010693;28;20652;-65
2023/08/09 03:50:43;;;;;;;11.30;3.40;;;;;;;20.84;nan;61621.56;5010386;28;20222;-61
2023/08/09 03:53:08;;;;;;;5.72;2.88;;;;;;;21.38;nan;61690.00;5011499;28;20202;-64
2023/08/09 03:55:33;;;;;;;3.85;2.83;;;;;;;22.45;nan;61823.81;5010550;28;20550;-65
2023/08/09 03:57:59;;;;;;;4.95;2.85;;;;;;;23.08;nan;61964.59;5011416;28;20179;-64
2023/08/09 04:00:26;;;;;;;8.82;3.63;;;;;;;23.88;nan;62210.53;5011627;28;20180;-65
2023/08/09 04:02:52;;;;;;;4.97;3.25;;;;;;;24.46;nan;62208.22;5011914;28;20211;-65
2023/08/09 04:05:19;;;;;;;3.88;2.70;;;;;;;24.91;nan;62298.78;5011595;28;20235;-65
2023/08/09 04:07:45;;;;;;;3.92;2.90;;;;;;;25.59;nan;62254.88;5010901;28;20183;-65
2023/08/09 04:10:11;;;;;;;4.70;3.30;;;;;;;25.91;nan;62382.47;5011610;28;20757;-64
2023/08/09 04:12:36;;;;;;;6.03;3.03;;;;;;;26.05;nan;62552.44;5009408;28;20184;-66
2023/08/09 04:15:06;;;;;;;3.30;2.85;;;;;;;26.44;nan;62371.13;5011056;28;20188;-64
2023/08/09 04:17:32;;;;;;;3.88;2.90;;;;;;;26.37;nan;62471.72;5014296;28;20206;-64
2023/08/09 04:19:58;;;;;;;3.97;2.95;;;;;;;26.24;nan;62373.00;5015399;28;20194;-64
2023/08/09 04:22:24;;;;;;;3.35;2.58;;;;;;;26.70;nan;62553.47;5015449;28;20187;-64
2023/08/09 04:24:50;;;;;;;4.55;2.65;;;;;;;26.57;nan;62349.81;5015057;28;20263;-64
2023/08/09 04:27:15;;;;;;;3.28;2.70;;;;;;;27.02;nan;62489.25;5014332;28;20232;-64
2023/08/09 04:29:41;;;;;;;7.13;2.92;;;;;;;26.75;nan;62430.69;5014048;28;20226;-64
2023/08/09 04:32:07;;;;;;;3.97;2.88;;;;;;;26.56;nan;62432.00;5015310;28;20242;-63
2023/08/09 04:34:32;;;;;;;4.40;2.80;;;;;;;26.49;nan;62414.09;5013482;28;20176;-64
2023/08/09 04:36:58;;;;;;;4.05;2.97;;;;;;;26.06;nan;62480.22;5013642;28;20212;-63
2023/08/09 04:39:23;;;;;;;4.47;2.70;;;;;;;25.94;nan;62402.16;5012580;28;20534;-64
2023/08/09 04:41:49;;;;;;;3.38;2.67;;;;;;;25.68;nan;62306.47;5013549;28;20721;-64
2023/08/09 04:44:15;;;;;;;5.38;3.75;;;;;;;24.87;nan;62317.75;5013515;28;20271;-67
2023/08/09 04:46:41;;;;;;;4.40;3.03;;;;;;;24.97;nan;62250.16;5013349;28;20271;-62
2023/08/09 04:49:06;;;;;;;6.10;3.35;;;;;;;24.60;nan;62101.94;5013783;28;20738;-65
2023/08/09 04:51:32;;;;;;;5.47;3.83;;;;;;;24.11;nan;62090.53;5013525;28;20659;-65
2023/08/09 04:53:58;;;;;;;6.00;3.28;;;;;;;23.99;nan;62059.19;5013441;28;20207;-64
2023/08/09 04:56:23;;;;;;;6.13;3.65;;;;;;;23.90;nan;62356.97;5013414;28;20766;-65
2023/08/09 04:58:49;;;;;;;5.53;3.08;;;;;;;;;;5012946;28;20266;-63
2023/08/09 05:01:14;;;;;;;3.78;2.88;;;;;;;23.26;nan;61998.13;5013663;28;20188;-65
2023/08/09 05:03:40;;;;;;;3.83;2.97;;;;;;;23.18;nan;62087.53;5011499;28;20239;-65
2023/08/09 05:06:05;;;;;;;3.65;2.70;;;;;;;23.15;nan;62026.75;5011050;28;20670;-65
2023/08/09 05:08:31;;;;;;;2.97;2.40;;;;;;;23.46;nan;62152.78;5011289;28;20180;-63
2023/08/09 05:10:56;;;;;;;4.13;3.00;;;;;;;22.62;nan;61931.09;5011232;28;20188;-64
2023/08/09 05:13:22;;;;;;;3.55;2.80;;;;;;;22.10;nan;61822.59;5012617;28;20176;-65
2023/08/09 05:15:47;;;;;;;2.85;2.40;;;;;;;21.80;nan;62077.81;5013175;28;20176;-65
2023/08/09 05:18:13;;;;;;;3.83;2.38;;;;;;;21.23;nan;61984.84;5013380;28;20179;-65
2023/08/09 05:20:38;;;;;;;2.97;2.53;;;;;;;20.63;nan;61684.00;5012906;28;20291;-61
2023/08/09 05:23:03;;;;;;;3.22;2.65;;;;;;;20.31;nan;61720.97;5014198;28;20180;-65
2023/08/09 05:25:29;;;;;;;4.78;3.03;;;;;;;20.51;nan;61706.75;5013067;28;20191;-65
2023/08/09 05:27:55;;;;;;;4.25;3.20;;;;;;;20.37;nan;61651.97;5012962;28;20228;-61
2023/08/09 05:30:22;;;;;;;7.15;2.65;;;;;;;20.41;nan;61646.69;5014201;28;20242;-64
2023/08/09 05:32:47;;;;;;;4.32;2.63;;;;;;;20.37;nan;61748.53;5014127;28;20184;-64
2023/08/09 05:35:13;;;;;;;3.25;2.53;;;;;;;20.71;nan;61713.88;5012337;28;20184;-62
2023/08/09 05:37:39;;;;;;;3.50;2.58;;;;;;;20.62;nan;61774.31;5013495;28;20232;-62
2023/08/09 05:40:09;;;;;;;3.15;2.42;;;;;;;20.71;nan;61763.78;5012556;28;20191;-62
2023/08/09 05:42:35;;;;;;;7.13;2.60;;;;;;;20.78;nan;61677.09;5009119;28;20210;-64
2023/08/09 05:45:01;;;;;;;3.70;2.70;;;;;;;21.05;nan;61739.44;5013511;28;20188;-66
2023/08/09 05:47:26;;;;;;;5.68;2.70;;;;;;;21.10;nan;61802.28;5013780;28;20559;-63
2023/08/09 05:49:51;;;;;;;4.28;2.60;;;;;;;20.89;nan;61695.34;5011735;28;20560;-65
2023/08/09 05:52:17;;;;;;;2.90;2.13;;;;;;;20.95;nan;61828.84;5012310;28;20187;-63
2023/08/09 05:54:42;;;;;;;3.25;2.70;;;;;;;21.06;nan;61740.59;5012000;28;20179;-65
2023/08/09 05:57:08;;;;;;;3.35;2.42;;;;;;;21.34;nan;61786.84;5010907;28;20737;-63
2023/08/09 05:59:33;;;;;;;3.42;2.40;;;;;;;21.38;nan;61755.56;5012672;28;20180;-65
2023/08/09 06:01:59;;;;;;;2.85;2.47;;;;;;;21.48;nan;61820.94;5011543;28;20191;-64
2023/08/09 06:04:24;;;;;;;4.25;2.85;;;;;;;21.31;nan;61879.59;5012395;28;20184;-65
2023/08/09 06:06:50;;;;;;;2.67;2.30;;;;;;;21.39;nan;62034.28;5011771;28;20226;-66
2023/08/09 06:09:16;;;;;;;2.60;2.17;;;;;;;21.27;nan;61789.28;5011874;28;20180;-63
2023/08/09 06:11:41;;;;;;;4.63;2.10;;;;;;;21.58;nan;61877.06;5011410;28;20191;-65
2023/08/09 06:14:07;;;;;;;2.67;2.22;;;;;;;21.69;nan;61932.66;5012523;28;20180;-63
2023/08/09 06:16:34;;;;;;;3.35;2.30;;;;;;;21.81;nan;61910.44;5011629;28;20204;-63
2023/08/09 06:19:00;;;;;;;3.38;2.50;;;;;;;21.89;nan;61862.28;5012597;28;20236;-63
2023/08/09 06:21:25;;;;;;;2.50;2.30;;;;;;;21.75;nan;61838.59;5012389;28;20634;-66
2023/08/09 06:23:51;;;;;;;2.40;2.10;;;;;;;21.95;nan;61819.69;5011084;28;20180;-64
2023/08/09 06:26:16;;;;;;;3.20;2.35;;;;;;;21.98;nan;61948.00;5011975;28;20698;-63
2023/08/09 06:28:42;;;;;;;2.47;2.05;;;;;;;22.12;nan;61869.09;5012682;28;20226;-64
2023/08/09 06:31:07;;;;;;;3.85;2.47;;;;;;;22.02;nan;61853.09;5012762;28;20233;-64
2023/08/09 06:33:37;;;;;;;3.10;2.22;;;;;;;22.45;nan;61909.19;5011709;28;20168;-65
2023/08/09 06:36:03;;;;;;;3.33;2.30;;;;;;;22.22;nan;61885.66;5011971;28;20200;-62
2023/08/09 06:38:30;;;;;;;2.50;2.30;;;;;;;22.39;nan;62006.50;5011557;28;20195;-63
2023/08/09 06:40:56;;;;;;;2.95;2.28;;;;;;;22.58;nan;61913.53;5011952;28;20176;-64
2023/08/09 06:43:21;;;;;;;2.88;2.22;;;;;;;22.61;nan;61960.66;5012863;28;20255;-64
2023/08/09 06:45:48;;;;;;;2.65;2.38;;;;;;;22.57;nan;62016.59;5012910;28;20657;-65
2023/08/09 06:48:14;;;;;;;2.58;2.10;;;;;;;22.66;nan;61948.13;5012831;28;20184;-63
2023/08/09 06:50:39;;;;;;;3.38;2.10;;;;;;;22.63;nan;61976.53;5011322;28;20186;-64
2023/08/09 06:53:05;;;;;;;3.00;2.50;;;;;;;23.02;nan;61998.94;5012741;28;20207;-63
2023/08/09 06:55:30;;;;;;;3.45;2.58;;;;;;;23.01;nan;62050.50;5011464;28;20639;-63
2023/08/09 06:57:56;;;;;;;4.03;2.60;;;;;;;23.16;nan;62100.91;5012700;28;20652;-64
2023/08/09 07:00:21;;;;;;;3.00;2.45;;;;;;;23.15;nan;61998.06;5012642;28;20175;-65
2023/08/09 07:02:47;;;;;;;2.58;2.10;;;;;;;23.47;nan;62028.72;5012249;28;20226;-65
2023/08/09 07:05:18;;;;;;;2.90;2.55;;;;;;;23.40;nan;62062.47;5012192;28;20188;-66
2023/08/09 07:07:45;;;;;;;3.42;2.55;;;;;;;23.19;nan;62102.28;5012551;28;20199;-66
2023/08/09 07:10:11;;;;;;;2.83;2.53;;;;;;;23.57;nan;62051.09;5012590;28;20263;-63
2023/08/09 07:12:37;;;;;;;5.00;2.72;;;;;;;23.44;nan;61962.69;5012367;28;20184;-66
2023/08/09 07:15:08;;;;;;;3.78;2.67;;;;;;;22.77;nan;62047.19;5012489;28;20259;-64
2023/08/09 07:17:33;;;;;;;3.42;2.58;;;;;;;22.40;nan;61875.44;5012348;28;20199;-64
2023/08/09 07:19:58;;;;;;;3.15;2.40;;;;;;;22.01;nan;61855.13;5011411;28;20180;-63
2023/08/09 07:22:24;;;;;;;3.30;2.40;;;;;;;22.46;nan;61905.69;5010905;28;20176;-65
2023/08/09 07:24:49;;;;;;;3.53;2.53;;;;;;;22.70;nan;61929.81;5012210;28;20242;-62
2023/08/09 07:27:14;;;;;;;3.40;2.53;;;;;;;23.22;nan;62066.56;5011803;28;20220;-64
2023/08/09 07:29:40;;;;;;;3.72;2.72;;;;;;;23.46;nan;62069.31;5011253;28;20257;-65
2023/08/09 07:32:06;;;;;;;3.08;2.40;;;;;;;23.42;nan;62156.03;5011982;28;20180;-65
2023/08/09 07:34:32;;;;;;;4.05;2.65;;;;;;;23.59;nan;62170.19;5012047;28;20558;-63
2023/08/09 07:36:57;;;;;;;4.95;2.55;;;;;;;23.74;nan;62200.34;5012172;28;20200;-63
2023/08/09 07:39:25;;;;;;;3.08;2.25;;;;;;;24.04;nan;62346.28;4992433;28;20176;-64
2023/08/09 07:41:50;;;;;;;2.63;2.42;;;;;;;23.92;nan;62042.81;4992545;28;20177;-64
2023/08/09 07:44:16;;;;;;;2.90;2.28;;;;;;;23.80;nan;62172.69;4991056;28;20179;-64
2023/08/09 07:46:41;;;;;;;4.15;2.25;;;;;;;23.89;nan;62188.19;4992224;28;20177;-65
2023/08/09 07:49:07;;;;;;;2.88;2.28;;;;;;;23.87;nan;62102.38;4991717;28;20656;-63
2023/08/09 07:51:32;;;;;;;3.20;2.28;;;;;;;23.73;nan;62100.03;4992218;28;20179;-63
2023/08/09 07:53:58;;;;;;;2.35;2.08;;;;;;;23.73;nan;62090.19;4992136;28;20172;-62
2023/08/09 07:56:23;;;;;;;2.38;2.08;;;;;;;23.76;nan;62085.78;4999112;28;20298;-63
2023/08/09 07:58:48;;;;;;;2.65;2.20;;;;;;;23.92;nan;62063.69;5012244;28;20246;-65
2023/08/09 08:01:15;;;;;;;2.72;2.00;;;;;;;24.18;nan;62059.91;5010845;28;20535;-64
2023/08/09 08:03:40;;;;;;;3.33;2.28;;;;;;;24.56;nan;62167.94;5009947;28;20183;-63
2023/08/09 08:06:06;;;;;;;2.67;2.40;;;;;;;24.43;nan;62239.34;5009789;28;20180;-64
2023/08/09 08:08:31;;;;;;;2.88;2.20;;;;;;;24.34;nan;62189.88;5011056;28;20619;-64
2023/08/09 08:10:57;;;;;;;2.95;2.22;;;;;;;24.45;nan;62309.56;5011529;28;20183;-64
2023/08/09 08:13:23;;;;;;;2.45;2.15;;;;;;;24.45;nan;62178.34;5011145;28;20274;-64
2023/08/09 08:15:50;;;;;;;2.10;1.90;;;;;;;24.49;nan;62151.56;5010508;28;20175;-64
2023/08/09 08:18:15;;;;;;;2.42;2.13;;;;;;;24.50;nan;62182.00;5010913;28;20215;-64
2023/08/09 08:20:41;;;;;;;2.70;2.00;;;;;;;24.27;nan;62228.34;5011356;28;20634;-64
2023/08/09 08:23:06;;;;;;;2.28;2.08;;;;;;;24.16;nan;62151.66;5010546;28;20319;-62
2023/08/09 08:25:32;;;;;;;3.33;2.10;;;;;;;23.81;nan;62208.34;5011175;28;20175;-64
2023/08/09 08:27:57;;;;;;;2.83;2.30;;;;;;;24.08;nan;62092.34;5011083;28;20220;-63
2023/08/09 08:30:23;;;;;;;3.42;2.40;;;;;;;24.38;nan;62238.84;5011088;28;20190;-65
2023/08/09 08:32:49;;;;;;;6.53;2.00;;;;;;;24.73;nan;62207.66;5011374;28;20176;-63
2023/08/09 08:35:19;;;;;;;2.15;1.95;;;;;;;24.63;nan;62199.44;5010123;28;20208;-65
2023/08/09 08:37:46;;;;;;;8.40;1.85;;;;;;;24.58;nan;62243.38;5011360;28;20689;-65
2023/08/09 08:40:17;;;;;;;4.22;1.83;;;;;;;24.50;nan;62200.31;5010458;28;20674;-64
2023/08/09 08:42:50;;;;;;;2.72;2.10;;;;;;;24.64;nan;62200.56;5011373;28;20180;-64
2023/08/09 08:45:15;;;;;;;2.40;1.60;;;;;;;24.65;nan;62165.13;5011106;28;20267;-65
2023/08/09 08:47:43;;;;;;;3.58;2.35;;;;;;;24.83;nan;62351.81;5010974;28;20212;-63
2023/08/09 08:50:11;;;;;;;2.97;1.80;;;;;;;24.75;nan;62236.06;5011383;28;20168;-64
2023/08/09 08:52:38;;;;;;;3.38;2.10;;;;;;;25.05;nan;62337.72;5011512;28;20172;-65
2023/08/09 08:55:09;;;;;;;2.45;1.95;;;;;;;25.23;nan;62229.53;5009343;28;20184;-63
2023/08/09 08:57:35;;;;;;;1.65;1.55;;;;;;;24.26;nan;62242.88;5009842;28;20342;-64
2023/08/09 09:00:08;;;;;;;1.92;1.67;;;;;;;25.04;nan;62350.22;5010686;28;20616;-64
2023/08/09 09:02:36;;;;;;;2.30;1.85;;;;;;;24.39;nan;62104.16;5012873;28;20172;-64
2023/08/09 09:05:02;;;;;;;1.63;1.40;;;;;;;24.50;nan;62161.09;5014818;28;20210;-64
2023/08/09 09:07:29;;;;;;;1.90;1.60;;;;;;;24.82;nan;62217.91;5014415;28;20684;-64
2023/08/09 09:09:59;;;;;;;1.65;1.52;;;;;;;25.15;nan;62336.06;5014576;28;20191;-64
2023/08/09 09:12:25;;;;;;;1.80;1.50;;;;;;;25.63;nan;62337.41;5014343;28;20241;-63
2023/08/09 09:14:51;;;;;;;1.63;1.42;;;;;;;25.86;nan;62327.56;5014640;28;20176;-65
2023/08/09 09:17:19;;;;;;;5.70;1.73;;;;;;;25.93;nan;62571.28;5014853;28;20219;-63
2023/08/09 09:19:44;;;;;;;1.75;1.52;;;;;;;25.51;nan;62277.16;5015024;28;20168;-63
2023/08/09 09:22:25;;;;;;;2.50;1.73;;;;;;;25.33;nan;62191.78;5014798;28;20513;-64
2023/08/09 09:24:50;;;;;;;1.98;1.77;;;;;;;25.37;nan;62235.59;5015007;28;20635;-64
2023/08/09 09:27:15;;;;;;;1.77;1.60;;;;;;;25.27;nan;62276.50;5013933;28;20270;-64
2023/08/09 09:29:41;;;;;;;1.85;1.65;;;;;;;24.98;nan;62345.41;5014596;28;20207;-63
2023/08/09 09:32:10;;;;;;;2.03;1.70;;;;;;;25.14;nan;62256.47;5014265;28;20181;-65
2023/08/09 09:34:37;;;;;;;1.88;1.50;;;;;;;25.36;nan;62449.00;5014624;28;20263;-63
2023/08/09 09:37:02;;;;;;;1.92;1.70;;;;;;;25.35;nan;62303.38;5014185;28;20215;-64
2023/08/09 09:39:28;;;;;;;2.33;1.60;;;;;;;24.93;nan;62355.38;5014049;28;20168;-64
2023/08/09 09:41:53;;;;;;;1.90;1.50;;;;;;;25.05;nan;62256.66;5014104;28;20184;-64
2023/08/09 09:44:23;;;;;;;1.70;1.50;;;;;;;25.19;nan;62392.94;5013925;28;20183;-64
2023/08/09 09:46:57;;;;;;;2.58;1.80;;;;;;;25.40;nan;62257.31;5014305;28;20179;-63
2023/08/09 09:49:23;;;;;;;2.03;1.75;;;;;;;25.37;nan;62277.47;5013957;28;20647;-63
2023/08/09 09:51:50;;;;;;;2.22;1.83;;;;;;;25.49;nan;62298.41;5013751;28;20273;-64
2023/08/09 09:54:16;;;;;;;2.05;1.60;;;;;;;25.53;nan;62326.53;5013556;28;20613;-63
2023/08/09 09:56:41;;;;;;;2.88;1.75;;;;;;;25.15;nan;62197.44;5013811;28;20758;-65
2023/08/09 09:59:07;;;;;;;1.80;1.58;;;;;;;25.31;nan;62254.91;5013653;28;20315;-64
2023/08/09 10:01:39;;;;;;;1.90;1.70;;;;;;;25.31;nan;62188.94;5014035;28;20193;-66
2023/08/09 10:04:06;;;;;;;1.90;1.70;;;;;;;25.69;nan;62422.78;5013615;28;20625;-64
2023/08/09 10:06:35;;;;;;;3.17;2.00;;;;;;;25.68;nan;62343.09;5013363;28;20228;-63
2023/08/09 10:09:03;;;;;;;1.65;1.55;;;;;;;25.75;nan;62356.91;5013452;28;20909;-63
2023/08/09 10:11:29;;;;;;;1.80;1.70;;;;;;;25.86;nan;62379.38;5013496;28;20178;-64
2023/08/09 10:13:59;;;;;;;2.67;1.70;;;;;;;26.12;nan;62348.81;5012576;28;20179;-65
2023/08/09 10:16:26;;;;;;;2.38;1.80;;;;;;;25.88;nan;62339.75;5013533;28;20666;-64
2023/08/09 10:18:58;;;;;;;2.28;1.77;;;;;;;25.90;nan;62386.56;5013152;28;20282;-64
2023/08/09 10:21:24;;;;;;;2.10;1.90;;;;;;;25.86;nan;62342.72;5013099;28;20164;-64
2023/08/09 10:24:18;;;;;;;1.67;1.50;;;;;;;26.25;nan;62478.41;5013389;28;20207;-67
2023/08/09 10:26:49;;;;;;;1.75;1.60;;;;;;;26.16;nan;62376.97;5010910;28;20246;-64
2023/08/09 10:29:20;;;;;;;2.05;1.70;;;;;;;25.99;nan;62360.16;5013141;28;20252;-65
2023/08/09 10:31:59;;;;;;;2.15;1.85;;;;;;;26.37;nan;62437.66;5012686;28;20179;-63
2023/08/09 10:34:37;;;;;;;1.60;1.50;;;;;;;26.16;nan;62468.66;5013121;28;20163;-64
2023/08/09 10:37:07;;;;;;;2.10;1.67;;;;;;;25.72;nan;62418.38;5013167;28;20218;-65
2023/08/09 10:39:34;;;;;;;2.15;1.63;;;;;;;25.73;nan;62312.16;5013068;28;20168;-65
2023/08/09 10:42:06;;;;;;;1.80;1.40;;;;;;;25.97;nan;62591.00;5012800;28;20172;-64
2023/08/09 10:44:48;;;;;;;1.83;1.40;;;;;;;25.96;nan;62364.59;5013319;28;20172;-63
2023/08/09 10:47:26;;;;;;;1.52;1.40;;;;;;;26.09;nan;62489.47;5013012;28;20754;-64
2023/08/09 10:49:52;;;;;;;1.92;1.60;;;;;;;26.20;nan;62431.31;5012856;28;20210;-62
2023/08/09 10:52:20;;;;;;;5.38;1.98;;;;;;;26.16;nan;62386.88;5013097;28;20215;-65
2023/08/09 10:54:48;;;;;;;1.92;1.65;;;;;;;26.08;nan;62498.25;5012540;28;20180;-63
2023/08/09 10:57:14;;;;;;;1.92;1.67;;;;;;;26.40;nan;62382.84;5012629;28;20566;-63
2023/08/09 10:59:43;;;;;;;1.70;1.60;;;;;;;26.37;nan;62426.59;5012688;28;20176;-64
2023/08/09 11:02:09;;;;;;;1.70;1.40;;;;;;;26.41;nan;62543.88;5012402;28;20662;-64
2023/08/09 11:04:34;;;;;;;1.80;1.50;;;;;;;26.55;nan;62443.97;5012647;28;20706;-64
2023/08/09 11:07:01;;;;;;;1.63;1.50;;;;;;;26.46;nan;62431.06;5012437;28;20266;-64
2023/08/09 11:09:29;;;;;;;2.80;1.63;;;;;;;26.35;nan;62519.25;5012256;28;20179;-64
2023/08/09 11:11:55;;;;;;;1.90;1.70;;;;;;;26.47;nan;62411.81;5012479;28;20176;-64
2023/08/09 11:14:22;;;;;;;2.10;1.77;;;;;;;26.48;nan;62468.00;5011634;28;20206;-64
2023/08/09 11:16:48;;;;;;;1.92;1.40;;;;;;;26.34;nan;62447.34;5012297;28;20262;-63
2023/08/09 11:19:18;;;;;;;1.98;1.40;;;;;;;26.18;nan;62389.72;5012082;28;20721;-64
2023/08/09 11:21:52;;;;;;;2.08;1.48;;;;;;;26.09;nan;62494.72;5011823;28;20560;-64
2023/08/09 11:24:19;;;;;;;1.67;1.40;;;;;;;23.90;nan;63967.41;5012310;28;20243;-65
2023/08/09 11:26:48;;;;;;;1.60;1.45;;;;;;;26.08;nan;62357.34;5012093;28;20184;-64
2023/08/09 11:29:15;;;;;;;1.73;1.33;;;;;;;26.22;nan;62385.91;5010628;28;20331;-64
2023/08/09 11:31:43;;;;;;;1.35;1.25;;;;;;;23.92;nan;64040.25;5012082;28;20214;-62
2023/08/09 11:34:11;;;;;;;2.97;1.40;;;;;;;26.37;nan;62526.75;5010510;28;20725;-63
2023/08/09 11:36:36;;;;;;;2.00;1.52;;;;;;;26.34;nan;62429.00;5010158;28;20228;-63
2023/08/09 11:39:04;;;;;;;1.52;1.42;;;;;;;26.57;nan;62452.06;5011765;28;20215;-64
2023/08/09 11:41:58;;;;;;;1.85;1.52;;;;;;;26.36;nan;62549.19;5011779;28;20211;-65
2023/08/09 11:44:36;;;;;;;1.88;1.40;;;;;;;26.28;nan;62329.84;5011667;28;20182;-65
2023/08/09 11:47:01;;;;;;;1.40;1.30;;;;;;;26.43;nan;62501.59;5011506;28;20164;-64
2023/08/09 11:49:32;;;;;;;2.22;1.60;;;;;;;26.50;nan;62553.59;5011883;28;20172;-65